sensor_id;sensor_type;location;lat;lon;timestamp;noise_LAeq;noise_LA_min;noise_LA_max;noise_LA01;noise_LA95
66449;Laerm;56828;52.294;4.666;2023-05-20T00:00:05;36.16;34.56;37.48;;
66449;Laerm;56828;52.294;4.666;2023-05-20T00:00:16;35.92;34.02;37.50;;
66449;Laerm;56828;52.294;4.666;2023-05-20T00:00:27;36.08;34.53;38.25;;
66449;Laerm;56828;52.294;4.666;2023-05-20T00:00:37;35.99;34.00;37.92;;
66449;Laerm;56828;52.294;4.666;2023-05-20T00:00:47;36.37;34.12;38.80;;
66449;Laerm;56828;52.294;4.666;2023-05-20T00:01:01;36.56;34.68;38.95;;
66449;Laerm;56828;52.294;4.666;2023-05-20T00:01:11;35.78;34.17;38.47;;
66449;Laerm;56828;52.294;4.666;2023-05-20T00:01:21;36.23;34.28;37.73;;
66449;Laerm;56828;52.294;4.666;2023-05-20T00:01:32;36.48;33.83;40.34;;
66449;Laerm;56828;52.294;4.666;2023-05-20T00:01:42;38.71;34.56;43.54;;
66449;Laerm;56828;52.294;4.666;2023-05-20T00:01:52;36.07;34.19;37.98;;
66449;Laerm;56828;52.294;4.666;2023-05-20T00:02:02;36.04;33.53;37.86;;
66449;Laerm;56828;52.294;4.666;2023-05-20T00:02:13;36.11;34.54;37.95;;
66449;Laerm;56828;52.294;4.666;2023-05-20T00:02:23;36.03;34.62;37.56;;
66449;Laerm;56828;52.294;4.666;2023-05-20T00:02:33;35.97;34.23;37.62;;
66449;Laerm;56828;52.294;4.666;2023-05-20T00:02:44;36.53;34.07;41.99;;
66449;Laerm;56828;52.294;4.666;2023-05-20T00:02:54;36.61;34.44;39.07;;
66449;Laerm;56828;52.294;4.666;2023-05-20T00:03:04;36.66;34.73;39.13;;
66449;Laerm;56828;52.294;4.666;2023-05-20T00:03:18;36.52;34.74;38.34;;
66449;Laerm;56828;52.294;4.666;2023-05-20T00:03:31;36.56;34.70;38.18;;
66449;Laerm;56828;52.294;4.666;2023-05-20T00:03:41;36.09;34.45;38.03;;
66449;Laerm;56828;52.294;4.666;2023-05-20T00:03:52;36.00;34.08;37.68;;
66449;Laerm;56828;52.294;4.666;2023-05-20T00:04:02;36.29;34.07;38.14;;
66449;Laerm;56828;52.294;4.666;2023-05-20T00:04:12;35.93;34.15;37.33;;
66449;Laerm;56828;52.294;4.666;2023-05-20T00:04:23;36.08;34.43;38.58;;
66449;Laerm;56828;52.294;4.666;2023-05-20T00:04:33;36.20;34.21;38.13;;
66449;Laerm;56828;52.294;4.666;2023-05-20T00:04:43;36.41;34.37;38.41;;
66449;Laerm;56828;52.294;4.666;2023-05-20T00:04:53;36.48;34.58;38.18;;
66449;Laerm;56828;52.294;4.666;2023-05-20T00:05:04;36.64;34.68;42.15;;
66449;Laerm;56828;52.294;4.666;2023-05-20T00:05:14;36.51;34.66;38.41;;
66449;Laerm;56828;52.294;4.666;2023-05-20T00:05:25;37.73;34.64;41.90;;
66449;Laerm;56828;52.294;4.666;2023-05-20T00:05:35;38.34;35.90;42.14;;
66449;Laerm;56828;52.294;4.666;2023-05-20T00:05:45;37.99;34.81;43.74;;
66449;Laerm;56828;52.294;4.666;2023-05-20T00:05:56;37.40;35.35;40.03;;
66449;Laerm;56828;52.294;4.666;2023-05-20T00:06:06;37.54;35.24;41.30;;
66449;Laerm;56828;52.294;4.666;2023-05-20T00:06:16;38.21;35.80;42.21;;
66449;Laerm;56828;52.294;4.666;2023-05-20T00:06:26;39.45;35.76;45.38;;
66449;Laerm;56828;52.294;4.666;2023-05-20T00:06:37;37.74;35.02;40.85;;
66449;Laerm;56828;52.294;4.666;2023-05-20T00:06:47;38.16;35.78;41.86;;
66449;Laerm;56828;52.294;4.666;2023-05-20T00:06:57;37.68;35.55;39.58;;
66449;Laerm;56828;52.294;4.666;2023-05-20T00:07:08;38.58;35.87;45.19;;
66449;Laerm;56828;52.294;4.666;2023-05-20T00:07:18;37.55;35.41;39.14;;
66449;Laerm;56828;52.294;4.666;2023-05-20T00:07:28;38.07;36.06;40.85;;
66449;Laerm;56828;52.294;4.666;2023-05-20T00:07:39;37.71;35.37;39.89;;
66449;Laerm;56828;52.294;4.666;2023-05-20T00:07:49;36.72;34.83;40.77;;
66449;Laerm;56828;52.294;4.666;2023-05-20T00:08:00;37.74;35.85;39.49;;
66449;Laerm;56828;52.294;4.666;2023-05-20T00:08:13;36.96;35.00;38.55;;
66449;Laerm;56828;52.294;4.666;2023-05-20T00:08:24;37.01;35.17;39.10;;
66449;Laerm;56828;52.294;4.666;2023-05-20T00:08:34;37.12;34.48;38.78;;
66449;Laerm;56828;52.294;4.666;2023-05-20T00:08:44;36.81;35.14;38.83;;
66449;Laerm;56828;52.294;4.666;2023-05-20T00:08:54;36.96;35.30;38.85;;
66449;Laerm;56828;52.294;4.666;2023-05-20T00:09:05;37.22;34.78;39.61;;
66449;Laerm;56828;52.294;4.666;2023-05-20T00:09:15;37.67;35.23;40.28;;
66449;Laerm;56828;52.294;4.666;2023-05-20T00:09:26;39.01;36.46;41.06;;
66449;Laerm;56828;52.294;4.666;2023-05-20T00:09:38;39.50;37.04;43.67;;
66449;Laerm;56828;52.294;4.666;2023-05-20T00:09:48;39.54;37.67;42.32;;
66449;Laerm;56828;52.294;4.666;2023-05-20T00:09:58;39.22;35.89;42.91;;
66449;Laerm;56828;52.294;4.666;2023-05-20T00:10:09;42.22;38.53;45.98;;
66449;Laerm;56828;52.294;4.666;2023-05-20T00:10:20;38.11;36.14;40.25;;
66449;Laerm;56828;52.294;4.666;2023-05-20T00:10:30;37.75;36.05;39.64;;
66449;Laerm;56828;52.294;4.666;2023-05-20T00:10:40;37.83;35.63;40.04;;
66449;Laerm;56828;52.294;4.666;2023-05-20T00:10:51;37.93;35.02;39.88;;
66449;Laerm;56828;52.294;4.666;2023-05-20T00:11:01;37.26;35.27;39.14;;
66449;Laerm;56828;52.294;4.666;2023-05-20T00:11:11;37.49;35.48;39.27;;
66449;Laerm;56828;52.294;4.666;2023-05-20T00:11:21;37.04;35.45;38.46;;
66449;Laerm;56828;52.294;4.666;2023-05-20T00:11:32;37.83;35.87;39.83;;
66449;Laerm;56828;52.294;4.666;2023-05-20T00:11:42;42.75;37.36;45.78;;
66449;Laerm;56828;52.294;4.666;2023-05-20T00:11:52;41.49;38.15;46.42;;
66449;Laerm;56828;52.294;4.666;2023-05-20T00:12:03;38.92;36.57;41.63;;
66449;Laerm;56828;52.294;4.666;2023-05-20T00:12:13;37.57;35.09;40.81;;
66449;Laerm;56828;52.294;4.666;2023-05-20T00:12:23;38.86;34.84;44.03;;
66449;Laerm;56828;52.294;4.666;2023-05-20T00:12:33;39.06;36.45;42.44;;
66449;Laerm;56828;52.294;4.666;2023-05-20T00:12:44;37.06;34.81;39.55;;
66449;Laerm;56828;52.294;4.666;2023-05-20T00:12:54;37.70;34.91;41.30;;
66449;Laerm;56828;52.294;4.666;2023-05-20T00:13:04;38.01;35.36;42.22;;
66449;Laerm;56828;52.294;4.666;2023-05-20T00:13:15;37.68;35.65;40.22;;
66449;Laerm;56828;52.294;4.666;2023-05-20T00:13:25;39.63;36.42;42.81;;
66449;Laerm;56828;52.294;4.666;2023-05-20T00:13:36;41.35;36.26;46.60;;
66449;Laerm;56828;52.294;4.666;2023-05-20T00:13:46;37.94;35.53;40.46;;
66449;Laerm;56828;52.294;4.666;2023-05-20T00:13:56;37.56;34.98;40.56;;
66449;Laerm;56828;52.294;4.666;2023-05-20T00:14:07;37.73;35.74;39.82;;
66449;Laerm;56828;52.294;4.666;2023-05-20T00:14:17;37.80;36.04;40.79;;
66449;Laerm;56828;52.294;4.666;2023-05-20T00:14:27;39.19;36.00;43.63;;
66449;Laerm;56828;52.294;4.666;2023-05-20T00:14:37;39.76;35.78;43.62;;
66449;Laerm;56828;52.294;4.666;2023-05-20T00:14:48;38.45;35.81;41.13;;
66449;Laerm;56828;52.294;4.666;2023-05-20T00:14:58;37.50;35.02;40.23;;
66449;Laerm;56828;52.294;4.666;2023-05-20T00:15:08;38.63;36.27;40.84;;
66449;Laerm;56828;52.294;4.666;2023-05-20T00:15:21;37.57;35.80;39.77;;
66449;Laerm;56828;52.294;4.666;2023-05-20T00:15:31;37.53;35.20;41.50;;
66449;Laerm;56828;52.294;4.666;2023-05-20T00:15:41;36.94;34.84;39.10;;
66449;Laerm;56828;52.294;4.666;2023-05-20T00:15:52;37.02;35.23;38.96;;
66449;Laerm;56828;52.294;4.666;2023-05-20T00:16:02;37.24;34.71;39.97;;
66449;Laerm;56828;52.294;4.666;2023-05-20T00:16:13;37.47;34.80;39.06;;
66449;Laerm;56828;52.294;4.666;2023-05-20T00:16:23;38.54;35.98;41.05;;
66449;Laerm;56828;52.294;4.666;2023-05-20T00:16:33;38.07;35.50;42.91;;
66449;Laerm;56828;52.294;4.666;2023-05-20T00:16:44;37.96;35.59;40.83;;
66449;Laerm;56828;52.294;4.666;2023-05-20T00:16:54;39.38;36.41;42.21;;
66449;Laerm;56828;52.294;4.666;2023-05-20T00:17:04;40.89;38.12;46.18;;
66449;Laerm;56828;52.294;4.666;2023-05-20T00:17:14;42.50;39.25;46.27;;
66449;Laerm;56828;52.294;4.666;2023-05-20T00:17:25;44.00;39.81;49.09;;
66449;Laerm;56828;52.294;4.666;2023-05-20T00:17:37;40.80;36.92;45.57;;
66449;Laerm;56828;52.294;4.666;2023-05-20T00:17:47;39.42;36.53;43.38;;
66449;Laerm;56828;52.294;4.666;2023-05-20T00:17:59;39.60;37.51;43.28;;
66449;Laerm;56828;52.294;4.666;2023-05-20T00:18:09;39.77;37.60;42.08;;
66449;Laerm;56828;52.294;4.666;2023-05-20T00:18:20;40.53;36.90;45.23;;
66449;Laerm;56828;52.294;4.666;2023-05-20T00:18:30;42.49;37.70;47.52;;
66449;Laerm;56828;52.294;4.666;2023-05-20T00:18:41;41.53;38.27;45.51;;
66449;Laerm;56828;52.294;4.666;2023-05-20T00:18:52;38.78;35.64;42.10;;
66449;Laerm;56828;52.294;4.666;2023-05-20T00:19:02;37.33;35.00;39.21;;
66449;Laerm;56828;52.294;4.666;2023-05-20T00:19:12;37.50;35.38;39.95;;
66449;Laerm;56828;52.294;4.666;2023-05-20T00:19:22;36.88;35.00;38.70;;
66449;Laerm;56828;52.294;4.666;2023-05-20T00:19:33;36.64;34.43;38.32;;
66449;Laerm;56828;52.294;4.666;2023-05-20T00:19:43;36.03;34.32;39.60;;
66449;Laerm;56828;52.294;4.666;2023-05-20T00:19:53;38.29;34.37;42.19;;
66449;Laerm;56828;52.294;4.666;2023-05-20T00:20:04;37.02;34.30;42.22;;
66449;Laerm;56828;52.294;4.666;2023-05-20T00:20:14;35.95;33.87;37.71;;
66449;Laerm;56828;52.294;4.666;2023-05-20T00:20:25;36.29;33.89;39.67;;
66449;Laerm;56828;52.294;4.666;2023-05-20T00:20:35;36.57;34.45;41.46;;
66449;Laerm;56828;52.294;4.666;2023-05-20T00:20:45;36.27;34.30;38.52;;
66449;Laerm;56828;52.294;4.666;2023-05-20T00:20:56;36.94;34.66;39.65;;
66449;Laerm;56828;52.294;4.666;2023-05-20T00:21:06;38.61;35.98;41.99;;
66449;Laerm;56828;52.294;4.666;2023-05-20T00:21:16;39.20;36.58;42.78;;
66449;Laerm;56828;52.294;4.666;2023-05-20T00:21:26;42.74;38.84;48.27;;
66449;Laerm;56828;52.294;4.666;2023-05-20T00:21:37;42.93;38.90;47.89;;
66449;Laerm;56828;52.294;4.666;2023-05-20T00:21:47;41.69;38.38;47.17;;
66449;Laerm;56828;52.294;4.666;2023-05-20T00:21:57;40.83;37.44;45.65;;
66449;Laerm;56828;52.294;4.666;2023-05-20T00:22:08;42.52;38.35;48.03;;
66449;Laerm;56828;52.294;4.666;2023-05-20T00:22:18;39.90;36.60;43.53;;
66449;Laerm;56828;52.294;4.666;2023-05-20T00:22:28;41.05;36.32;46.47;;
66449;Laerm;56828;52.294;4.666;2023-05-20T00:22:39;41.93;38.76;45.36;;
66449;Laerm;56828;52.294;4.666;2023-05-20T00:22:49;42.70;36.89;48.68;;
66449;Laerm;56828;52.294;4.666;2023-05-20T00:22:59;37.89;35.48;40.90;;
66449;Laerm;56828;52.294;4.666;2023-05-20T00:23:10;36.73;34.58;38.68;;
66449;Laerm;56828;52.294;4.666;2023-05-20T00:23:20;36.38;34.75;38.16;;
66449;Laerm;56828;52.294;4.666;2023-05-20T00:23:30;35.90;33.65;37.48;;
66449;Laerm;56828;52.294;4.666;2023-05-20T00:23:41;35.86;34.20;38.09;;
66449;Laerm;56828;52.294;4.666;2023-05-20T00:23:51;36.03;33.43;37.82;;
66449;Laerm;56828;52.294;4.666;2023-05-20T00:24:01;35.77;33.95;37.61;;
66449;Laerm;56828;52.294;4.666;2023-05-20T00:24:11;35.96;34.16;37.50;;
66449;Laerm;56828;52.294;4.666;2023-05-20T00:24:23;36.11;34.15;37.68;;
66449;Laerm;56828;52.294;4.666;2023-05-20T00:24:33;36.57;34.95;38.12;;
66449;Laerm;56828;52.294;4.666;2023-05-20T00:24:43;38.66;35.35;42.14;;
66449;Laerm;56828;52.294;4.666;2023-05-20T00:24:54;39.92;36.29;44.02;;
66449;Laerm;56828;52.294;4.666;2023-05-20T00:25:04;36.49;34.47;38.41;;
66449;Laerm;56828;52.294;4.666;2023-05-20T00:25:15;36.23;34.17;38.09;;
66449;Laerm;56828;52.294;4.666;2023-05-20T00:25:25;36.73;34.28;38.75;;
66449;Laerm;56828;52.294;4.666;2023-05-20T00:25:35;36.63;34.58;38.50;;
66449;Laerm;56828;52.294;4.666;2023-05-20T00:25:46;36.16;33.97;37.74;;
66449;Laerm;56828;52.294;4.666;2023-05-20T00:25:56;35.92;33.50;37.71;;
66449;Laerm;56828;52.294;4.666;2023-05-20T00:26:06;36.02;34.33;37.63;;
66449;Laerm;56828;52.294;4.666;2023-05-20T00:26:16;35.69;33.68;37.24;;
66449;Laerm;56828;52.294;4.666;2023-05-20T00:26:27;36.56;33.70;41.18;;
66449;Laerm;56828;52.294;4.666;2023-05-20T00:26:38;38.37;35.33;42.50;;
66449;Laerm;56828;52.294;4.666;2023-05-20T00:26:48;39.18;36.21;42.07;;
66449;Laerm;56828;52.294;4.666;2023-05-20T00:26:59;42.16;37.55;50.06;;
66449;Laerm;56828;52.294;4.666;2023-05-20T00:27:09;44.47;38.94;51.94;;
66449;Laerm;56828;52.294;4.666;2023-05-20T00:27:19;43.58;37.86;49.91;;
66449;Laerm;56828;52.294;4.666;2023-05-20T00:27:30;39.72;37.38;42.56;;
66449;Laerm;56828;52.294;4.666;2023-05-20T00:27:40;40.89;37.56;43.58;;
66449;Laerm;56828;52.294;4.666;2023-05-20T00:27:50;40.34;37.84;44.10;;
66449;Laerm;56828;52.294;4.666;2023-05-20T00:28:01;40.76;36.87;46.03;;
66449;Laerm;56828;52.294;4.666;2023-05-20T00:28:11;41.72;35.62;46.70;;
66449;Laerm;56828;52.294;4.666;2023-05-20T00:28:21;43.24;35.64;49.29;;
66449;Laerm;56828;52.294;4.666;2023-05-20T00:28:32;40.66;35.44;47.05;;
66449;Laerm;56828;52.294;4.666;2023-05-20T00:28:43;37.23;35.45;41.18;;
66449;Laerm;56828;52.294;4.666;2023-05-20T00:28:53;37.03;35.01;38.72;;
66449;Laerm;56828;52.294;4.666;2023-05-20T00:29:03;36.16;34.01;38.34;;
66449;Laerm;56828;52.294;4.666;2023-05-20T00:29:14;36.24;34.08;38.26;;
66449;Laerm;56828;52.294;4.666;2023-05-20T00:29:24;36.86;34.78;38.66;;
66449;Laerm;56828;52.294;4.666;2023-05-20T00:29:34;36.87;34.95;38.61;;
66449;Laerm;56828;52.294;4.666;2023-05-20T00:29:45;36.29;34.14;38.01;;
66449;Laerm;56828;52.294;4.666;2023-05-20T00:29:55;36.88;34.17;40.21;;
66449;Laerm;56828;52.294;4.666;2023-05-20T00:30:05;40.10;35.47;43.53;;
66449;Laerm;56828;52.294;4.666;2023-05-20T00:30:16;38.56;34.74;41.14;;
66449;Laerm;56828;52.294;4.666;2023-05-20T00:30:26;36.36;34.22;38.12;;
66449;Laerm;56828;52.294;4.666;2023-05-20T00:30:40;36.31;34.22;38.14;;
66449;Laerm;56828;52.294;4.666;2023-05-20T00:30:53;36.59;34.46;39.36;;
66449;Laerm;56828;52.294;4.666;2023-05-20T00:31:03;37.06;34.78;39.68;;
66449;Laerm;56828;52.294;4.666;2023-05-20T00:31:14;36.87;35.02;38.65;;
66449;Laerm;56828;52.294;4.666;2023-05-20T00:31:24;37.78;35.33;40.26;;
66449;Laerm;56828;52.294;4.666;2023-05-20T00:31:35;45.26;37.89;51.08;;
66449;Laerm;56828;52.294;4.666;2023-05-20T00:31:45;44.03;39.64;48.22;;
66449;Laerm;56828;52.294;4.666;2023-05-20T00:31:55;40.01;37.37;42.84;;
66449;Laerm;56828;52.294;4.666;2023-05-20T00:32:06;40.86;37.15;45.12;;
66449;Laerm;56828;52.294;4.666;2023-05-20T00:32:16;37.54;35.41;39.87;;
66449;Laerm;56828;52.294;4.666;2023-05-20T00:32:26;37.00;34.75;38.95;;
66449;Laerm;56828;52.294;4.666;2023-05-20T00:32:37;38.06;35.80;39.71;;
66449;Laerm;56828;52.294;4.666;2023-05-20T00:32:47;39.83;35.74;42.49;;
66449;Laerm;56828;52.294;4.666;2023-05-20T00:32:57;44.23;38.94;50.18;;
66449;Laerm;56828;52.294;4.666;2023-05-20T00:33:08;37.60;35.42;39.72;;
66449;Laerm;56828;52.294;4.666;2023-05-20T00:33:18;37.70;35.53;39.30;;
66449;Laerm;56828;52.294;4.666;2023-05-20T00:33:29;38.36;35.93;40.21;;
66449;Laerm;56828;52.294;4.666;2023-05-20T00:33:39;38.31;36.58;40.70;;
66449;Laerm;56828;52.294;4.666;2023-05-20T00:33:50;36.91;34.46;39.02;;
66449;Laerm;56828;52.294;4.666;2023-05-20T00:34:00;37.30;35.34;39.21;;
66449;Laerm;56828;52.294;4.666;2023-05-20T00:34:11;37.46;35.62;39.48;;
66449;Laerm;56828;52.294;4.666;2023-05-20T00:34:21;37.17;35.54;39.15;;
66449;Laerm;56828;52.294;4.666;2023-05-20T00:34:31;36.99;35.12;38.89;;
66449;Laerm;56828;52.294;4.666;2023-05-20T00:34:42;36.77;34.54;39.40;;
66449;Laerm;56828;52.294;4.666;2023-05-20T00:34:56;36.53;34.30;39.23;;
66449;Laerm;56828;52.294;4.666;2023-05-20T00:35:07;37.17;35.36;39.92;;
66449;Laerm;56828;52.294;4.666;2023-05-20T00:35:17;37.17;34.69;39.55;;
66449;Laerm;56828;52.294;4.666;2023-05-20T00:35:27;36.83;34.66;40.15;;
66449;Laerm;56828;52.294;4.666;2023-05-20T00:35:38;36.44;34.34;38.77;;
66449;Laerm;56828;52.294;4.666;2023-05-20T00:35:48;37.31;34.74;39.86;;
66449;Laerm;56828;52.294;4.666;2023-05-20T00:35:58;39.58;35.60;43.45;;
66449;Laerm;56828;52.294;4.666;2023-05-20T00:36:09;42.21;37.14;52.17;;
66449;Laerm;56828;52.294;4.666;2023-05-20T00:36:19;44.11;37.83;53.44;;
66449;Laerm;56828;52.294;4.666;2023-05-20T00:36:29;39.21;36.00;44.29;;
66449;Laerm;56828;52.294;4.666;2023-05-20T00:36:40;38.69;36.29;41.60;;
66449;Laerm;56828;52.294;4.666;2023-05-20T00:36:52;38.76;36.15;42.60;;
66449;Laerm;56828;52.294;4.666;2023-05-20T00:37:02;38.09;35.60;40.85;;
66449;Laerm;56828;52.294;4.666;2023-05-20T00:37:12;38.66;36.45;41.91;;
66449;Laerm;56828;52.294;4.666;2023-05-20T00:37:23;38.40;35.22;41.69;;
66449;Laerm;56828;52.294;4.666;2023-05-20T00:37:33;42.76;37.68;49.16;;
66449;Laerm;56828;52.294;4.666;2023-05-20T00:37:43;39.65;36.87;43.15;;
66449;Laerm;56828;52.294;4.666;2023-05-20T00:37:54;41.15;38.03;46.16;;
66449;Laerm;56828;52.294;4.666;2023-05-20T00:38:04;41.12;37.18;47.57;;
66449;Laerm;56828;52.294;4.666;2023-05-20T00:38:14;46.34;37.47;55.73;;
66449;Laerm;56828;52.294;4.666;2023-05-20T00:38:25;47.78;41.70;51.81;;
66449;Laerm;56828;52.294;4.666;2023-05-20T00:38:35;41.32;35.78;49.45;;
66449;Laerm;56828;52.294;4.666;2023-05-20T00:38:45;37.68;35.05;39.79;;
66449;Laerm;56828;52.294;4.666;2023-05-20T00:38:56;37.18;34.41;39.69;;
66449;Laerm;56828;52.294;4.666;2023-05-20T00:39:06;36.83;34.23;39.56;;
66449;Laerm;56828;52.294;4.666;2023-05-20T00:39:16;36.39;34.32;38.15;;
66449;Laerm;56828;52.294;4.666;2023-05-20T00:39:26;36.97;34.97;38.64;;
66449;Laerm;56828;52.294;4.666;2023-05-20T00:39:37;37.91;35.81;39.85;;
66449;Laerm;56828;52.294;4.666;2023-05-20T00:39:47;37.42;34.45;40.09;;
66449;Laerm;56828;52.294;4.666;2023-05-20T00:39:57;36.20;34.44;38.08;;
66449;Laerm;56828;52.294;4.666;2023-05-20T00:40:08;36.44;34.47;38.48;;
66449;Laerm;56828;52.294;4.666;2023-05-20T00:40:18;36.37;34.71;39.00;;
66449;Laerm;56828;52.294;4.666;2023-05-20T00:40:30;36.75;34.95;38.46;;
66449;Laerm;56828;52.294;4.666;2023-05-20T00:40:41;36.94;35.09;39.61;;
66449;Laerm;56828;52.294;4.666;2023-05-20T00:40:51;37.26;35.27;39.93;;
66449;Laerm;56828;52.294;4.666;2023-05-20T00:41:01;37.71;35.21;40.39;;
66449;Laerm;56828;52.294;4.666;2023-05-20T00:41:11;39.64;37.35;42.50;;
66449;Laerm;56828;52.294;4.666;2023-05-20T00:41:22;39.55;35.86;43.66;;
66449;Laerm;56828;52.294;4.666;2023-05-20T00:41:32;36.85;35.09;39.72;;
66449;Laerm;56828;52.294;4.666;2023-05-20T00:41:42;36.51;34.84;38.70;;
66449;Laerm;56828;52.294;4.666;2023-05-20T00:41:53;36.20;34.65;38.02;;
66449;Laerm;56828;52.294;4.666;2023-05-20T00:42:03;36.12;34.15;38.15;;
66449;Laerm;56828;52.294;4.666;2023-05-20T00:42:23;35.91;33.67;38.19;;
66449;Laerm;56828;52.294;4.666;2023-05-20T00:42:34;37.30;34.84;40.55;;
66449;Laerm;56828;52.294;4.666;2023-05-20T00:42:44;36.23;34.17;39.08;;
66449;Laerm;56828;52.294;4.666;2023-05-20T00:42:55;37.01;35.27;39.21;;
66449;Laerm;56828;52.294;4.666;2023-05-20T00:43:05;37.08;35.20;39.62;;
66449;Laerm;56828;52.294;4.666;2023-05-20T00:43:15;38.71;36.06;42.73;;
66449;Laerm;56828;52.294;4.666;2023-05-20T00:43:25;37.83;35.74;40.66;;
66449;Laerm;56828;52.294;4.666;2023-05-20T00:43:36;37.54;35.82;39.21;;
66449;Laerm;56828;52.294;4.666;2023-05-20T00:43:46;37.27;34.41;39.59;;
66449;Laerm;56828;52.294;4.666;2023-05-20T00:43:57;36.56;34.83;39.16;;
66449;Laerm;56828;52.294;4.666;2023-05-20T00:44:07;36.47;34.47;38.92;;
66449;Laerm;56828;52.294;4.666;2023-05-20T00:44:17;37.17;35.00;40.33;;
66449;Laerm;56828;52.294;4.666;2023-05-20T00:44:28;36.65;34.63;38.52;;
66449;Laerm;56828;52.294;4.666;2023-05-20T00:44:38;36.97;34.93;39.05;;
66449;Laerm;56828;52.294;4.666;2023-05-20T00:44:48;36.50;34.52;38.08;;
66449;Laerm;56828;52.294;4.666;2023-05-20T00:44:59;37.06;34.29;39.27;;
66449;Laerm;56828;52.294;4.666;2023-05-20T00:45:09;36.81;34.67;40.14;;
66449;Laerm;56828;52.294;4.666;2023-05-20T00:45:20;36.60;34.36;40.57;;
66449;Laerm;56828;52.294;4.666;2023-05-20T00:45:30;36.43;34.91;38.54;;
66449;Laerm;56828;52.294;4.666;2023-05-20T00:45:41;36.42;34.24;38.67;;
66449;Laerm;56828;52.294;4.666;2023-05-20T00:45:51;36.59;34.74;38.44;;
66449;Laerm;56828;52.294;4.666;2023-05-20T00:46:02;37.38;34.99;39.53;;
66449;Laerm;56828;52.294;4.666;2023-05-20T00:46:12;37.94;35.80;39.77;;
66449;Laerm;56828;52.294;4.666;2023-05-20T00:46:23;36.95;34.93;38.71;;
66449;Laerm;56828;52.294;4.666;2023-05-20T00:46:35;36.88;35.15;38.62;;
66449;Laerm;56828;52.294;4.666;2023-05-20T00:46:45;37.06;34.37;40.14;;
66449;Laerm;56828;52.294;4.666;2023-05-20T00:46:57;37.73;34.87;40.23;;
66449;Laerm;56828;52.294;4.666;2023-05-20T00:47:07;40.92;35.18;51.11;;
66449;Laerm;56828;52.294;4.666;2023-05-20T00:47:18;41.53;35.08;48.53;;
66449;Laerm;56828;52.294;4.666;2023-05-20T00:47:29;46.05;35.36;57.96;;
66449;Laerm;56828;52.294;4.666;2023-05-20T00:47:41;46.72;35.77;53.52;;
66449;Laerm;56828;52.294;4.666;2023-05-20T00:47:51;42.90;34.83;50.14;;
66449;Laerm;56828;52.294;4.666;2023-05-20T00:48:02;38.92;35.35;49.15;;
66449;Laerm;56828;52.294;4.666;2023-05-20T00:48:13;38.48;35.09;42.42;;
66449;Laerm;56828;52.294;4.666;2023-05-20T00:48:23;44.95;35.06;53.91;;
66449;Laerm;56828;52.294;4.666;2023-05-20T00:48:41;39.07;34.79;45.57;;
66449;Laerm;56828;52.294;4.666;2023-05-20T00:48:52;39.93;34.84;49.98;;
66449;Laerm;56828;52.294;4.666;2023-05-20T00:49:02;40.64;36.34;46.05;;
66449;Laerm;56828;52.294;4.666;2023-05-20T00:49:14;38.46;36.15;41.94;;
66449;Laerm;56828;52.294;4.666;2023-05-20T00:49:24;39.53;34.65;44.91;;
66449;Laerm;56828;52.294;4.666;2023-05-20T00:49:34;37.35;34.22;40.05;;
66449;Laerm;56828;52.294;4.666;2023-05-20T00:49:45;37.09;35.08;40.41;;
66449;Laerm;56828;52.294;4.666;2023-05-20T00:49:55;36.64;33.96;39.22;;
66449;Laerm;56828;52.294;4.666;2023-05-20T00:50:06;37.35;34.96;39.61;;
66449;Laerm;56828;52.294;4.666;2023-05-20T00:50:19;36.84;34.78;38.49;;
66449;Laerm;56828;52.294;4.666;2023-05-20T00:50:29;36.91;34.15;38.89;;
66449;Laerm;56828;52.294;4.666;2023-05-20T00:50:40;36.82;34.69;38.82;;
66449;Laerm;56828;52.294;4.666;2023-05-20T00:50:51;37.59;35.38;40.19;;
66449;Laerm;56828;52.294;4.666;2023-05-20T00:51:01;37.16;34.40;40.05;;
66449;Laerm;56828;52.294;4.666;2023-05-20T00:51:13;37.64;34.54;40.24;;
66449;Laerm;56828;52.294;4.666;2023-05-20T00:51:24;37.21;35.14;40.09;;
66449;Laerm;56828;52.294;4.666;2023-05-20T00:51:34;37.60;35.23;40.73;;
66449;Laerm;56828;52.294;4.666;2023-05-20T00:51:45;37.53;35.35;39.76;;
66449;Laerm;56828;52.294;4.666;2023-05-20T00:51:56;37.09;35.26;39.35;;
66449;Laerm;56828;52.294;4.666;2023-05-20T00:52:06;37.35;35.31;41.76;;
66449;Laerm;56828;52.294;4.666;2023-05-20T00:52:17;37.01;35.03;39.27;;
66449;Laerm;56828;52.294;4.666;2023-05-20T00:52:28;36.06;34.40;37.80;;
66449;Laerm;56828;52.294;4.666;2023-05-20T00:52:39;36.32;34.43;37.99;;
66449;Laerm;56828;52.294;4.666;2023-05-20T00:52:52;38.89;35.66;41.79;;
66449;Laerm;56828;52.294;4.666;2023-05-20T00:53:04;37.60;34.85;40.32;;
66449;Laerm;56828;52.294;4.666;2023-05-20T00:53:15;36.82;34.67;38.70;;
66449;Laerm;56828;52.294;4.666;2023-05-20T00:53:26;37.98;35.08;40.77;;
66449;Laerm;56828;52.294;4.666;2023-05-20T00:53:36;38.86;36.89;41.03;;
66449;Laerm;56828;52.294;4.666;2023-05-20T00:53:47;39.56;36.44;44.87;;
66449;Laerm;56828;52.294;4.666;2023-05-20T00:53:58;37.32;35.09;40.47;;
66449;Laerm;56828;52.294;4.666;2023-05-20T00:54:09;37.72;35.17;41.02;;
66449;Laerm;56828;52.294;4.666;2023-05-20T00:54:19;37.55;35.21;40.64;;
66449;Laerm;56828;52.294;4.666;2023-05-20T00:54:30;36.29;34.33;38.37;;
66449;Laerm;56828;52.294;4.666;2023-05-20T00:54:41;36.34;34.24;39.26;;
66449;Laerm;56828;52.294;4.666;2023-05-20T00:54:51;36.77;34.81;39.00;;
66449;Laerm;56828;52.294;4.666;2023-05-20T00:55:02;35.83;33.58;38.12;;
66449;Laerm;56828;52.294;4.666;2023-05-20T00:55:12;35.67;33.69;37.94;;
66449;Laerm;56828;52.294;4.666;2023-05-20T00:55:23;35.67;32.92;38.12;;
66449;Laerm;56828;52.294;4.666;2023-05-20T00:55:33;35.74;33.65;37.63;;
66449;Laerm;56828;52.294;4.666;2023-05-20T00:55:44;35.51;33.37;37.33;;
66449;Laerm;56828;52.294;4.666;2023-05-20T00:55:55;36.32;34.11;38.16;;
66449;Laerm;56828;52.294;4.666;2023-05-20T00:56:05;35.80;33.79;37.83;;
66449;Laerm;56828;52.294;4.666;2023-05-20T00:56:16;35.92;33.79;38.20;;
66449;Laerm;56828;52.294;4.666;2023-05-20T00:56:27;35.90;34.07;37.75;;
66449;Laerm;56828;52.294;4.666;2023-05-20T00:56:38;35.83;33.74;37.36;;
66449;Laerm;56828;52.294;4.666;2023-05-20T00:56:50;36.79;34.78;41.60;;
66449;Laerm;56828;52.294;4.666;2023-05-20T00:57:00;36.05;33.97;38.57;;
66449;Laerm;56828;52.294;4.666;2023-05-20T00:57:12;35.77;33.90;37.51;;
66449;Laerm;56828;52.294;4.666;2023-05-20T00:57:22;35.86;34.16;37.97;;
66449;Laerm;56828;52.294;4.666;2023-05-20T00:57:33;35.95;33.65;38.87;;
66449;Laerm;56828;52.294;4.666;2023-05-20T00:57:43;36.03;33.68;38.49;;
66449;Laerm;56828;52.294;4.666;2023-05-20T00:57:53;35.58;33.62;37.37;;
66449;Laerm;56828;52.294;4.666;2023-05-20T00:58:04;36.35;34.02;39.94;;
66449;Laerm;56828;52.294;4.666;2023-05-20T00:58:14;36.57;34.34;39.79;;
66449;Laerm;56828;52.294;4.666;2023-05-20T00:58:25;36.33;34.22;38.66;;
66449;Laerm;56828;52.294;4.666;2023-05-20T00:58:35;37.08;34.55;39.37;;
66449;Laerm;56828;52.294;4.666;2023-05-20T00:58:46;37.18;34.90;39.34;;
66449;Laerm;56828;52.294;4.666;2023-05-20T00:58:57;35.94;33.82;39.35;;
66449;Laerm;56828;52.294;4.666;2023-05-20T00:59:07;35.41;33.50;38.81;;
66449;Laerm;56828;52.294;4.666;2023-05-20T00:59:18;35.77;33.76;37.99;;